West Descanso (73, 78, 625) Station Data

Red Flag Warning: No
Fire Weather Zone: 258
SDGE Region: Mountain Empire
Lat/Lon: 32.849/-116.63

Observations

Time Wind Speed/Gust Temp(F) RH Fuel Moist Fuel Temp(F) Dewpt(F) Tmax(F) Tmin(F) Accum Precip 10-min Precip SL Press(mb)
3/29 8:00am 41 6 G 12 59° 19% - - 17° 59.6° 46.9° - - -
3/29 7:50am 37 5 G 9 59° 18% - - 16° 59.5° 46.9° - - -
3/29 7:40am 23 8 G 13 59° 16% - - 13° 59.5° 46.9° - - -
3/29 7:30am 20 9 G 16 57° 18% - - 14° 59.1° 46.9° - - -
3/29 7:20am 27 8 G 13 56° 19% - - 15° 57.9° 46.9° - - -
3/29 7:10am 30 10 G 14 56° 18% - - 14° 57.9° 46.9° - - -
3/29 7:00am 22 12 G 16 57° 16% - - 11° 57.9° 46.9° - - -
3/29 6:50am 18 13 G 16 57° 17% - - 12° 57.8° 46.9° - - -
3/29 6:40am 21 14 G 19 56° 17% - - 12° 57.8° 46.9° - - -
3/29 6:30am 17 12 G 17 56° 18% - - 12° 57.8° 46.9° - - -
3/29 6:20am 19 11 G 16 55° 18% - - 13° 57.8° 46.9° - - -
3/29 6:10am 33 9 G 12 54° 19% - - 13° 57.8° 46.9° - - -
3/29 6:00am 28 9 G 19 55° 19% - - 13° 57.8° 46.9° - - -
3/29 5:50am 23 9 G 14 55° 18% - - 12° 57.8° 46.9° - - -
3/29 5:40am 36 8 G 13 56° 17% - - 11° 57.8° 46.9° - - -
3/29 5:30am 15 10 G 15 57° 15% - - 10° 57.8° 46.9° - - -
3/29 5:20am 354 11 G 15 58° 15% - - 10° 57.8° 46.9° - - -
3/29 5:10am 360 9 G 14 57° 15% - - 10° 57.6° 46.9° - - -
3/29 5:00am 354 10 G 14 57° 15% - - 10° 57.6° 46.9° - - -
3/29 4:50am 6 10 G 13 56° 16% - - 10° 57.5° 46.9° - - -
3/29 4:40am 11 9 G 12 56° 16% - - 10° 57.5° 46.9° - - -
3/29 4:30am 4 10 G 14 56° 15% - - 10° 57.5° 46.9° - - -
3/29 4:20am 10 10 G 12 56° 16% - - 10° 57.5° 46.9° - - -
3/29 4:10am 11 11 G 14 56° 16% - - 10° 57.5° 46.9° - - -
3/29 4:00am 4 10 G 13 56° 16% - - 10° 57.5° 46.9° - - -
3/29 3:50am 357 10 G 12 56° 15% - - 57.5° 46.9° - - -
3/29 3:40am 5 8 G 12 55° 17% - - 11° 57.5° 46.9° - - -
3/29 3:30am 14 7 G 15 56° 16% - - 11° 57.5° 46.9° - - -
3/29 3:20am 3 10 G 14 57° 15% - - 57.4° 46.9° - - -
3/29 3:10am 1 10 G 17 57° 15% - - 57.4° 46.9° - - -
3/29 3:00am 8 10 G 15 57° 15% - - 57.2° 46.9° - - -
3/29 2:50am 5 12 G 19 56° 16% - - 10° 57.1° 46.9° - - -
3/29 2:40am 4 11 G 18 55° 17% - - 11° 56° 46.9° - - -
3/29 2:30am 13 12 G 17 54° 19% - - 12° 55.7° 46.9° - - -
3/29 2:20am 14 11 G 15 55° 18% - - 11° 55.7° 46.9° - - -
3/29 2:10am 2 10 G 16 55° 17% - - 11° 55.7° 46.9° - - -
3/29 2:00am 356 10 G 16 55° 17% - - 11° 55.7° 46.9° - - -
3/29 1:50am 357 10 G 13 52° 21% - - 13° 53.2° 46.9° - - -
3/29 1:40am 357 9 G 11 50° 25% - - 15° 51.9° 46.9° - - -
3/29 1:30am 8 11 G 14 50° 25% - - 16° 51.9° 46.9° - - -
3/29 1:20am 12 9 G 13 49° 27% - - 16° 51.9° 46.9° - - -
3/29 1:10am 9 7 G 12 47° 31% - - 18° 51.9° 46.9° - - -
3/29 1:00am 358 7 G 9 48° 31% - - 18° 51.9° 46.9° - - -
3/29 12:50am 356 6 G 8 49° 29% - - 18° 51.9° 48.2° - - -
3/29 12:40am 2 5 G 8 49° 30% - - 19° 51.9° 48.2° - - -
3/29 12:30am 349 5 G 8 49° 30% - - 19° 51.9° 49° - - -
3/29 12:20am 360 5 G 7 50° 27% - - 18° 51.9° 49.1° - - -
3/29 12:10am 17 4 G 8 51° 26% - - 18° 51.9° 50.6° - - -
3/29 12:00am 11 3 G 6 51° 26% - - 18° 63.8° 40.1° - - -
3/28 11:50pm 10 3 G 5 51° 28% - - 19° 63.8° 40.1° - - -
3/28 11:40pm 16 2 G 5 51° 30% - - 21° 63.8° 40.1° - - -
3/28 11:30pm 20 3 G 5 51° 32% - - 23° 63.8° 40.1° - - -
3/28 11:20pm 20 3 G 5 51° 34% - - 24° 63.8° 40.1° - - -
3/28 11:10pm 16 3 G 5 52° 39% - - 27° 63.8° 40.1° - - -
3/28 11:00pm 20 3 G 5 52° 39% - - 28° 63.8° 40.1° - - -
3/28 10:50pm 38 3 G 6 51° 43% - - 29° 63.8° 40.1° - - -
3/28 10:40pm 7 3 G 6 51° 45% - - 31° 63.8° 40.1° - - -
3/28 10:30pm 5 5 G 8 51° 48% - - 32° 63.8° 40.1° - - -
3/28 10:20pm 6 3 G 7 51° 50% - - 33° 63.8° 40.1° - - -
3/28 10:10pm 29 3 G 7 52° 50% - - 34° 63.8° 40.1° - - -
3/28 10:00pm 356 4 G 6 52° 51% - - 34° 63.8° 40.1° - - -
3/28 9:50pm 358 5 G 8 52° 55% - - 36° 63.8° 40.1° - - -
3/28 9:40pm 13 3 G 5 50° 60% - - 37° 63.8° 40.1° - - -
3/28 9:30pm 9 5 G 10 50° 61% - - 37° 63.8° 40.1° - - -
3/28 9:20pm 1 5 G 8 50° 62% - - 38° 63.8° 40.1° - - -
3/28 9:10pm 9 5 G 9 50° 65% - - 38° 63.8° 40.1° - - -
3/28 9:00pm 7 4 G 6 49° 66% - - 39° 63.8° 40.1° - - -
3/28 8:50pm 18 5 G 9 50° 65% - - 39° 63.8° 40.1° - - -
3/28 8:40pm 9 6 G 9 51° 65% - - 40° 63.8° 40.1° - - -
3/28 8:30pm 9 4 G 7 52° 64% - - 40° 63.8° 40.1° - - -
3/28 8:20pm 1 5 G 7 52° 64% - - 40° 63.8° 40.1° - - -
3/28 8:10pm 356 5 G 6 52° 65% - - 40° 63.8° 40.1° - - -
3/28 8:00pm 359 6 G 7 52° 65% - - 40° 63.8° 40.1° - - -
3/28 7:50pm 30 3 G 6 51° 65% - - 40° 63.8° 40.1° - - -
3/28 7:40pm 350 5 G 8 52° 63% - - 40° 63.8° 40.1° - - -
3/28 7:30pm 325 4 G 7 53° 61% - - 40° 63.8° 40.1° - - -
3/28 7:20pm 337 5 G 9 53° 59% - - 39° 63.8° 40.1° - - -
3/28 7:10pm 303 5 G 10 54° 60% - - 40° 63.8° 40.1° - - -
3/28 7:00pm 242 2 G 4 54° 62% - - 41° 63.8° 40.1° - - -
3/28 6:50pm 255 2 G 4 54° 60% - - 41° 63.8° 40.1° - - -
3/28 6:40pm 274 2 G 4 55° 59% - - 41° 63.8° 40.1° - - -
3/28 6:30pm 285 3 G 5 55° 59% - - 41° 63.8° 40.1° - - -
3/28 6:20pm 296 3 G 6 55° 59% - - 41° 63.8° 40.1° - - -
3/28 6:10pm 324 3 G 8 55° 59% - - 41° 63.8° 40.1° - - -
3/28 6:00pm 319 3 G 7 57° 56% - - 41° 63.8° 40.1° - - -
3/28 5:50pm 291 3 G 5 58° 53% - - 41° 63.8° 40.1° - - -
3/28 5:40pm 294 4 G 8 58° 52% - - 41° 63.8° 40.1° - - -
3/28 5:30pm 261 2 G 7 59° 53% - - 42° 63.8° 40.1° - - -
3/28 5:20pm 257 3 G 7 59° 52% - - 41° 63.8° 40.1° - - -
3/28 5:10pm 269 4 G 9 60° 50% - - 41° 63.8° 40.1° - - -
3/28 5:00pm 285 4 G 7 60° 43% - - 38° 63.8° 40.1° - - -
3/28 4:50pm 301 4 G 9 61° 41% - - 38° 63.8° 40.1° - - -
3/28 4:40pm 299 3 G 7 61° 40% - - 37° 63.8° 40.1° - - -
3/28 4:30pm 325 3 G 7 62° 36% - - 35° 63.8° 40.1° - - -
3/28 4:20pm 318 2 G 9 62° 35% - - 34° 63.8° 40.1° - - -
3/28 4:10pm 344 2 G 8 62° 33% - - 33° 63.8° 40.1° - - -
3/28 4:00pm 298 2 G 7 63° 33% - - 33° 63.8° 40.1° - - -
3/28 3:50pm 323 3 G 8 62° 34% - - 33° 63.8° 40.1° - - -
3/28 3:40pm 341 3 G 7 62° 34% - - 33° 63.8° 40.1° - - -
3/28 3:30pm 300 3 G 8 63° 34% - - 34° 63.8° 40.1° - - -
3/28 3:20pm 334 2 G 6 62° 34% - - 33° 63.8° 40.1° - - -
3/28 3:10pm 357 3 G 7 63° 33% - - 34° 63.8° 40.1° - - -
3/28 3:00pm 265 2 G 8 63° 33% - - 33° 63.8° 40.1° - - -
3/28 2:50pm 326 3 G 8 62° 32% - - 32° 63.4° 40.1° - - -
3/28 2:40pm 3 2 G 6 63° 32% - - 32° 63.4° 40.1° - - -
3/28 2:30pm 111 2 G 7 63° 31% - - 31° 63.4° 40.1° - - -
3/28 2:20pm 255 3 G 9 63° 30% - - 31° 63.3° 40.1° - - -
3/28 2:10pm 216 3 G 10 62° 30% - - 30° 62.9° 40.1° - - -
3/28 2:00pm 243 2 G 8 62° 30% - - 30° 62.9° 40.1° - - -
3/28 1:50pm 338 3 G 9 62° 29% - - 30° 62.9° 40.1° - - -
3/28 1:40pm 247 3 G 8 61° 30% - - 29° 62.9° 40.1° - - -
3/28 1:30pm 237 3 G 8 62° 29% - - 29° 62.9° 40.1° - - -
3/28 1:20pm 237 3 G 9 61° 29% - - 29° 62.5° 40.1° - - -
3/28 1:10pm 192 4 G 9 61° 29% - - 28° 62.5° 40.1° - - -
3/28 1:00pm 205 4 G 11 61° 29% - - 29° 62.5° 40.1° - - -
3/28 12:50pm 197 3 G 8 62° 30% - - 31° 62.5° 40.1° - - -
3/28 12:40pm 222 3 G 9 62° 32% - - 32° 62.4° 40.1° - - -
3/28 12:30pm 208 4 G 12 61° 33% - - 31° 61.6° 40.1° - - -
3/28 12:20pm 217 4 G 9 61° 33% - - 31° 61.6° 40.1° - - -
3/28 12:10pm 211 4 G 11 61° 33% - - 31° 61.6° 40.1° - - -
3/28 12:00pm 227 5 G 11 60° 33% - - 31° 61.6° 40.1° - - -
3/28 11:50am 184 5 G 10 61° 34% - - 32° 61.6° 40.1° - - -
3/28 11:40am 249 3 G 7 61° 33% - - 32° 61.6° 40.1° - - -
3/28 11:30am 275 2 G 7 61° 32% - - 30° 61.6° 40.1° - - -
3/28 11:20am 1 3 G 7 60° 27% - - 26° 61.5° 40.1° - - -
3/28 11:10am 183 4 G 15 61° 27% - - 26° 61.5° 40.1° - - -
3/28 11:00am 32 2 G 5 60° 18% - - 16° 60.8° 40.1° - - -
3/28 10:50am 16 4 G 9 60° 20% - - 18° 60.7° 40.1° - - -
3/28 10:40am 344 4 G 9 60° 20% - - 18° 59.9° 40.1° - - -
3/28 10:30am 29 5 G 10 59° 19% - - 16° 59.7° 40.1° - - -
3/28 10:20am 44 7 G 12 59° 19% - - 16° 59.1° 40.1° - - -
3/28 10:10am 48 7 G 12 58° 18% - - 15° 58.8° 40.1° - - -
3/28 10:00am 46 9 G 14 58° 18% - - 14° 58° 40.1° - - -
3/28 9:50am 45 7 G 13 57° 18% - - 15° 57.8° 40.1° - - -
3/28 9:40am 38 9 G 14 57° 18% - - 14° 57.3° 40.1° - - -
3/28 9:30am 33 10 G 16 56° 19% - - 15° 56.9° 40.1° - - -
3/28 9:20am 32 11 G 17 56° 20% - - 15° 56.4° 40.1° - - -
3/28 9:10am 35 10 G 15 55° 20% - - 15° 55.5° 40.1° - - -
3/28 9:00am 36 11 G 15 55° 20% - - 15° 55° 40.1° - - -
3/28 8:50am 32 11 G 19 54° 22% - - 16° 54.7° 40.1° - - -
3/28 8:40am 35 9 G 13 54° 24% - - 18° 54.4° 40.1° - - -
3/28 8:30am 29 11 G 15 52° 26% - - 18° 53.2° 40.1° - - -
3/28 8:20am 31 9 G 13 51° 28% - - 19° 51.9° 40.1° - - -
3/28 8:10am 19 9 G 13 51° 28% - - 18° 51° 40.1° - - -
3/28 8:00am 22 9 G 12 50° 27% - - 18° 50.5° 40.1° - - -
3/28 7:50am 21 10 G 14 50° 27% - - 17° 50.2° 40.1° - - -
3/28 7:40am 19 9 G 13 48° 31% - - 18° 48.9° 40.1° - - -
3/28 7:30am 21 7 G 13 47° 32% - - 19° 48.9° 40.1° - - -
3/28 7:20am 12 7 G 10 48° 31% - - 18° 48.8° 40.1° - - -
3/28 7:10am 15 7 G 10 47° 32% - - 18° 48.5° 40.1° - - -
3/28 7:00am 14 6 G 11 47° 33% - - 19° 47.2° 40.1° - - -
3/28 6:50am 17 4 G 8 46° 35% - - 20° 46.6° 40.1° - - -
3/28 6:40am 27 5 G 11 44° 42% - - 22° 46.4° 40.1° - - -
3/28 6:30am 17 6 G 8 44° 42% - - 22° 46.4° 40.1° - - -
3/28 6:20am 19 7 G 9 44° 43% - - 23° 46.4° 40.1° - - -
3/28 6:10am 13 7 G 10 45° 40% - - 22° 46.4° 40.1° - - -
3/28 6:00am 19 8 G 10 45° 38% - - 21° 46.4° 40.1° - - -